This is the latest recevied weather packets stored in our database for station/object BMCB-2. If no packets are shown the sender has not sent any weather packets the latest 10 day(s).
| Time | Temp. | Humidity | Pressure | Rain* | Wind** | Luminosity | Snow |
|---|---|---|---|---|---|---|---|
| 1777857059 | 11.11° C | 96% | 1014 hPa | 0 mm | - | 0 W/m² | - |
| 1777852268 | 11.67° C | 97% | 1014.2 hPa | 0 mm | - | 0 W/m² | - |
| 1777851667 | 11.67° C | 97% | 1014.2 hPa | 0 mm | - | 0 W/m² | - |
| 1777846868 | 11.11° C | 98% | 1014.3 hPa | 0 mm | - | 0 W/m² | - |
| 1777846270 | 11.11° C | 97% | 1014.4 hPa | 0 mm | - | 0 W/m² | - |
| 1777840872 | 12.78° C | 97% | 1014.2 hPa | 0 mm | - | 0 W/m² | - |
| 1777835463 | 13.33° C | 94% | 1013.9 hPa | 0 mm | - | 0 W/m² | - |
| 1777833664 | 13.33° C | 93% | 1013.6 hPa | 0 mm | - | 6 W/m² | - |
| 1777832468 | 13.33° C | 93% | 1013.6 hPa | 0 mm | - | 8 W/m² | - |
| 1777816861 | 13.89° C | 95% | 1013.9 hPa | 0 mm | - | 266 W/m² | - |
| 1777810260 | 12.78° C | 98% | 1014.3 hPa | 1.27 mm | - | 158 W/m² | - |
| 1777809659 | 12.78° C | 98% | 1014.4 hPa | 1.52 mm | - | 136 W/m² | - |
| 1777804267 | 12.22° C | 96% | 1014.4 hPa | 3.56 mm | - | 72 W/m² | - |
| 1777800656 | 12.78° C | 93% | 1014.4 hPa | 1.52 mm | - | 78 W/m² | - |
| 1777794058 | 14.44° C | 77% | 1013.4 hPa | 0 mm | - | 144 W/m² | - |
| 1777787455 | 13.33° C | 88% | 1013.2 hPa | 0 mm | - | 62 W/m² | - |
| 1777780256 | 11.67° C | 95% | 1014 hPa | 0 mm | - | 0 W/m² | - |
| 1777775455 | 12.22° C | 95% | 1014.2 hPa | 0 mm | - | 0 W/m² | - |
| 1777771857 | 13.33° C | 90% | 1014.3 hPa | 0 mm | - | 0 W/m² | - |
| 1777766464 | 13.89° C | 87% | 1015 hPa | 0 mm | - | 0 W/m² | - |
| 1777762261 | 15° C | 85% | 1015.1 hPa | 0 mm | - | 0 W/m² | - |
| 1777761066 | 15° C | 85% | 1015.1 hPa | 0 mm | - | 0 W/m² | - |
| 1777759869 | 15° C | 86% | 1015.1 hPa | 0 mm | - | 0 W/m² | - |
| 1777759265 | 15.56° C | 86% | 1015 hPa | 0 mm | - | 0 W/m² | - |
| 1777756270 | 15° C | 88% | 1015.3 hPa | 0 mm | - | 0 W/m² | - |
* Rain latest hour (hover to see other rain measurements)
** Current wind speed in m/s (hover to see current wind gust speed)